Time;durP1;ratioP1;P1;durP2;ratioP2;P2;SDS_P1;SDS_P2;PMS_P1;PMS_P2;Temp;Humidity;BMP_temperature;BMP_pressure;BME280_temperature;BME280_humidity;BME280_pressure;Samples;Min_cycle;Max_cycle;Signal;HPM_P1;HPM_P2
2022/03/04 00:03:40;;;;;;;0.00;0.00;;;;;;;17.47;nan;101954.50;10586433;27;20049;-78
2022/03/04 00:08:42;;;;;;;0.00;0.00;;;;;;;15.17;nan;101964.84;10583941;27;20584;-78
2022/03/04 00:13:43;;;;;;;0.00;0.00;;;;;;;13.19;nan;101975.72;10543786;27;20047;-78
2022/03/04 00:18:45;;;;;;;0.05;0.05;;;;;;;13.75;nan;101972.25;10576244;27;20040;-78
2022/03/04 00:23:47;;;;;;;0.30;0.30;;;;;;;13.27;nan;101973.34;10585460;27;20056;-78
2022/03/04 00:28:48;;;;;;;0.00;0.00;;;;;;;14.89;nan;101970.25;10544782;27;20125;-76
2022/03/04 00:33:51;;;;;;;0.00;0.00;;;;;;;14.80;nan;101970.00;10548996;27;20051;-78
2022/03/04 00:38:55;;;;;;;0.10;0.10;;;;;;;12.32;nan;101988.25;10559929;27;20039;-77
2022/03/04 00:43:56;;;;;;;0.08;0.08;;;;;;;13.79;nan;101981.91;10565206;27;20065;-79
2022/03/04 00:48:58;;;;;;;0.08;0.08;;;;;;;15.63;nan;101976.31;10569600;27;20036;-77
2022/03/04 00:54:00;;;;;;;0.00;0.00;;;;;;;15.55;nan;101983.91;10549533;27;20043;-77
2022/03/04 00:59:01;;;;;;;0.43;0.43;;;;;;;16.81;nan;101976.88;10532851;28;20043;-77
2022/03/04 01:04:03;;;;;;;0.00;0.00;;;;;;;17.27;nan;101978.53;10561178;27;20490;-78
2022/03/04 01:09:05;;;;;;;0.60;0.47;;;;;;;16.38;nan;101989.13;10563334;27;20114;-77
2022/03/04 01:14:08;;;;;;;0.00;0.00;;;;;;;16.31;nan;101979.44;10577296;27;20051;-77
2022/03/04 01:19:13;;;;;;;0.00;0.00;;;;;;;13.93;nan;102001.31;10582328;27;20039;-78
2022/03/04 01:24:14;;;;;;;0.10;0.10;;;;;;;13.98;nan;102001.47;10573599;28;20050;-78
2022/03/04 01:29:16;;;;;;;0.00;0.00;;;;;;;15.77;nan;101991.31;10561429;28;20674;-78
2022/03/04 01:34:18;;;;;;;0.00;0.00;;;;;;;16.32;nan;101989.88;10571638;27;20061;-78
2022/03/04 01:39:20;;;;;;;0.00;0.00;;;;;;;13.55;nan;102001.03;10576630;28;20491;-78
2022/03/04 01:44:22;;;;;;;0.10;0.10;;;;;;;14.10;nan;101987.97;10578657;27;20039;-77
2022/03/04 01:49:23;;;;;;;0.00;0.00;;;;;;;13.36;nan;101973.66;10586856;27;20047;-78
2022/03/04 01:54:25;;;;;;;0.03;0.03;;;;;;;12.82;nan;101974.50;10559448;27;20043;-79
2022/03/04 01:59:27;;;;;;;0.20;0.20;;;;;;;12.10;nan;101970.25;10570383;28;20050;-78
2022/03/04 02:04:29;;;;;;;0.10;0.10;;;;;;;11.89;nan;101973.75;10583389;27;20123;-78
2022/03/04 02:09:30;;;;;;;0.10;0.10;;;;;;;13.24;nan;101957.75;10572064;27;20055;-78
2022/03/04 02:14:32;;;;;;;0.00;0.00;;;;;;;14.82;nan;101963.16;10556701;27;20055;-77
2022/03/04 02:19:34;;;;;;;0.00;0.00;;;;;;;13.32;nan;101967.50;10573650;27;20051;-78
2022/03/04 02:24:35;;;;;;;0.22;0.22;;;;;;;13.02;nan;101960.50;10561420;27;20117;-78
2022/03/04 02:29:37;;;;;;;0.00;0.00;;;;;;;14.80;nan;101962.22;10549739;27;20119;-79
2022/03/04 02:34:39;;;;;;;0.00;0.00;;;;;;;15.35;nan;101954.03;10560282;27;20513;-78
2022/03/04 02:39:43;;;;;;;0.75;0.65;;;;;;;14.25;nan;101969.38;10535860;27;20098;-79
2022/03/04 02:44:45;;;;;;;0.10;0.10;;;;;;;13.79;nan;101972.41;10545923;28;20043;-78
2022/03/04 02:49:46;;;;;;;0.00;0.00;;;;;;;16.66;nan;101953.19;10572695;27;20040;-78
2022/03/04 02:54:48;;;;;;;0.00;0.00;;;;;;;16.31;nan;101963.84;10576013;27;20050;-78
2022/03/04 02:59:49;;;;;;;0.95;0.77;;;;;;;13.48;nan;101973.19;10542881;27;20050;-79
2022/03/04 03:04:51;;;;;;;0.20;0.20;;;;;;;14.31;nan;101979.91;10564362;27;20040;-81
2022/03/04 03:09:53;;;;;;;0.00;0.00;;;;;;;13.62;nan;101971.03;10565906;27;20401;-79
2022/03/04 03:14:54;;;;;;;0.00;0.00;;;;;;;15.34;nan;101973.03;10559213;27;20074;-77
2022/03/04 03:19:56;;;;;;;0.17;0.10;;;;;;;11.93;nan;101975.63;10552113;27;20043;-78
2022/03/04 03:24:58;;;;;;;0.00;0.00;;;;;;;15.37;nan;101967.94;10560062;27;20088;-80
2022/03/04 03:30:00;;;;;;;0.08;0.08;;;;;;;15.75;nan;101965.28;10554267;28;20063;-79
2022/03/04 03:35:02;;;;;;;0.10;0.10;;;;;;;15.10;nan;101961.22;10539381;28;20035;-79
2022/03/04 03:40:09;;;;;;;0.00;0.00;;;;;;;15.71;nan;101968.66;10553887;27;20047;-78
2022/03/04 03:45:12;;;;;;;0.00;0.00;;;;;;;15.59;nan;101974.47;10547529;27;20048;-79
2022/03/04 03:50:13;;;;;;;0.00;0.00;;;;;;;11.84;nan;101993.34;10577480;27;20048;-79
2022/03/04 03:55:15;;;;;;;0.00;0.00;;;;;;;12.00;nan;101985.41;10572995;27;20486;-79
2022/03/04 04:00:17;;;;;;;0.00;0.00;;;;;;;13.12;nan;101984.97;10585419;27;20055;-78
2022/03/04 04:05:18;;;;;;;0.00;0.00;;;;;;;14.19;nan;101996.00;10608692;27;20051;-77
2022/03/04 04:10:22;;;;;;;0.00;0.00;;;;;;;11.95;nan;102006.66;10592491;27;20059;-78
2022/03/04 04:15:27;;;;;;;0.00;0.00;;;;;;;12.84;nan;102009.06;10556469;28;20043;-78
2022/03/04 04:20:28;;;;;;;0.08;0.08;;;;;;;14.09;nan;102006.97;10566398;28;20040;-77
2022/03/04 04:25:30;;;;;;;0.00;0.00;;;;;;;12.97;nan;102011.22;10549133;28;20047;-78
2022/03/04 04:30:32;;;;;;;0.08;0.08;;;;;;;14.85;nan;102004.75;10565952;28;20153;-77
2022/03/04 04:35:33;;;;;;;3.58;3.30;;;;;;;15.04;nan;102005.19;10565918;28;20574;-77
2022/03/04 04:40:35;;;;;;;0.10;0.10;;;;;;;14.75;nan;102010.53;10565832;28;20044;-78
2022/03/04 04:45:37;;;;;;;0.00;0.00;;;;;;;13.61;nan;102016.75;10583742;28;20043;-77
2022/03/04 04:50:38;;;;;;;0.05;0.05;;;;;;;13.25;nan;102006.94;10566314;28;20122;-78
2022/03/04 04:55:40;;;;;;;0.00;0.00;;;;;;;15.02;nan;101993.91;10565175;28;20049;-78
2022/03/04 05:00:42;;;;;;;0.00;0.00;;;;;;;13.57;nan;102004.56;10584462;28;20044;-77
2022/03/04 05:05:44;;;;;;;0.00;0.00;;;;;;;12.35;nan;102014.22;10547712;28;20075;-78
2022/03/04 05:10:46;;;;;;;0.10;0.10;;;;;;;13.58;nan;102008.91;10564518;28;20053;-77
2022/03/04 05:15:48;;;;;;;0.00;0.00;;;;;;;11.99;nan;102006.88;10563448;28;20048;-77
2022/03/04 05:20:50;;;;;;;0.00;0.00;;;;;;;12.70;nan;102012.00;10564235;28;20051;-77
2022/03/04 05:25:51;;;;;;;0.20;0.20;;;;;;;11.95;nan;102017.88;10563779;28;20043;-77
2022/03/04 05:30:53;;;;;;;0.00;0.00;;;;;;;12.10;nan;102025.38;10564102;28;20047;-77
2022/03/04 05:35:57;;;;;;;0.10;0.10;;;;;;;11.67;nan;102041.75;10547203;28;20040;-77
2022/03/04 05:40:59;;;;;;;0.05;0.05;;;;;;;12.20;nan;102050.75;10547029;28;20062;-76
2022/03/04 05:46:01;;;;;;;5.57;5.05;;;;;;;13.18;nan;102046.41;10563819;28;20050;-77
2022/03/04 05:51:03;;;;;;;0.70;0.52;;;;;;;11.70;nan;102053.09;10581811;28;20047;-76
2022/03/04 05:56:07;;;;;;;0.00;0.00;;;;;;;11.83;nan;102058.72;10546874;28;20448;-78
2022/03/04 06:01:09;;;;;;;0.00;0.00;;;;;;;11.69;nan;102061.66;10582244;28;20048;-78
2022/03/04 06:06:12;;;;;;;0.52;0.52;;;;;;;11.72;nan;102066.94;10580409;28;20126;-77
2022/03/04 06:11:14;;;;;;;0.00;0.00;;;;;;;12.32;nan;102070.09;10563071;28;20399;-78
2022/03/04 06:16:15;;;;;;;0.00;0.00;;;;;;;13.14;nan;102065.25;10563124;28;20039;-77
2022/03/04 06:21:17;;;;;;;0.20;0.20;;;;;;;12.04;nan;102069.91;10563355;28;20051;-76
2022/03/04 06:26:20;;;;;;;0.20;0.20;;;;;;;10.21;nan;102075.91;10564815;28;20414;-77
2022/03/04 06:31:21;;;;;;;0.28;0.28;;;;;;;11.64;nan;102082.94;10567320;28;20044;-77
2022/03/04 06:36:23;;;;;;;0.55;0.55;;;;;;;12.84;nan;102079.75;10542770;27;20043;-77
2022/03/04 06:41:24;;;;;;;0.00;0.00;;;;;;;12.74;nan;102079.38;10613007;27;20051;-77
2022/03/04 06:46:26;;;;;;;0.10;0.10;;;;;;;12.30;nan;102077.78;10595702;27;20054;-77
2022/03/04 06:51:28;;;;;;;0.00;0.00;;;;;;;12.19;nan;102079.06;10597614;27;20050;-82
2022/03/04 06:56:30;;;;;;;0.00;0.00;;;;;;;12.46;nan;102078.38;10566803;27;20524;-81
2022/03/04 07:01:31;;;;;;;0.00;0.00;;;;;;;13.26;nan;102076.00;10563846;27;20077;-82
2022/03/04 07:06:33;;;;;;;0.10;0.10;;;;;;;13.10;nan;102090.13;10556585;27;20043;-81
2022/03/04 07:11:35;;;;;;;0.00;0.00;;;;;;;13.41;nan;102090.31;10564703;27;20047;-81
2022/03/04 07:16:36;;;;;;;0.10;0.10;;;;;;;13.42;nan;102099.84;10565888;27;20096;-81
2022/03/04 07:21:38;;;;;;;0.00;0.00;;;;;;;13.24;nan;102095.75;10548451;27;20074;-82
2022/03/04 07:26:40;;;;;;;0.52;0.52;;;;;;;12.14;nan;102101.28;10583089;27;20040;-82
2022/03/04 07:31:41;;;;;;;0.63;0.30;;;;;;;14.49;nan;102095.34;10566975;27;20051;-80
2022/03/04 07:36:43;;;;;;;2.17;1.08;;;;;;;13.52;nan;102109.66;10575264;27;20046;-81
2022/03/04 07:41:48;;;;;;;0.32;0.15;;;;;;;13.88;nan;102103.94;10621687;27;20043;-80
2022/03/04 07:46:50;;;;;;;3.38;2.45;;;;;;;13.40;nan;102104.97;10567794;28;20035;-80
2022/03/04 07:51:52;;;;;;;1.52;1.17;;;;;;;13.27;nan;102108.81;10560925;28;20452;-80
2022/03/04 07:56:55;;;;;;;0.93;0.50;;;;;;;13.59;nan;102106.44;10572728;28;20047;-80
2022/03/04 08:01:57;;;;;;;0.85;0.85;;;;;;;14.06;nan;102107.91;10553076;28;20067;-81
2022/03/04 08:06:59;;;;;;;1.92;1.27;;;;;;;15.77;nan;102119.50;10570433;27;20124;-80
2022/03/04 08:12:01;;;;;;;2.47;0.30;;;;;;;14.91;nan;102124.25;10565415;27;20210;-81
2022/03/04 08:17:03;;;;;;;0.15;0.15;;;;;;;15.41;nan;102120.34;10547837;27;20040;-81
2022/03/04 08:22:05;;;;;;;2.03;1.92;;;;;;;16.28;nan;102127.59;10548951;27;20511;-81
2022/03/04 08:27:26;;;;;;;6.82;3.08;;;;;;;15.13;nan;102124.84;10564232;27;20043;-81
2022/03/04 08:32:28;;;;;;;5.82;2.60;;;;;;;16.96;nan;102129.00;10554709;27;20121;-83
2022/03/04 08:37:33;;;;;;;1.85;0.82;;;;;;;16.39;nan;102136.53;10573076;27;20330;-81
2022/03/04 08:42:36;;;;;;;1.17;0.75;;;;;;;17.16;nan;102141.53;10551795;27;20553;-82
2022/03/04 08:47:38;;;;;;;0.50;0.30;;;;;;;17.47;nan;102129.03;10560410;27;20036;-82
2022/03/04 08:52:43;;;;;;;1.75;0.38;;;;;;;17.08;nan;102134.47;10541829;28;20546;-82
2022/03/04 08:57:46;;;;;;;0.10;0.10;;;;;;;17.27;nan;102140.00;10539588;28;20104;-82
2022/03/04 09:02:49;;;;;;;3.03;2.47;;;;;;;17.95;nan;102141.16;10579337;27;20047;-83
2022/03/04 09:07:51;;;;;;;0.40;0.40;;;;;;;18.84;nan;102130.13;10540068;28;20074;-83
2022/03/04 09:12:53;;;;;;;0.25;0.25;;;;;;;19.84;nan;102122.38;10523662;28;20428;-83
2022/03/04 09:17:55;;;;;;;4.20;2.20;;;;;;;17.55;nan;102125.72;10527545;28;20059;-83
2022/03/04 09:22:57;;;;;;;2.60;2.33;;;;;;;18.65;nan;102129.03;10566619;28;20471;-84
2022/03/04 09:28:00;;;;;;;0.25;0.25;;;;;;;18.44;nan;102140.06;10550424;28;20099;-83
2022/03/04 09:33:03;;;;;;;2.45;1.90;;;;;;;19.69;nan;102137.91;10574595;28;20093;-84
2022/03/04 09:38:05;;;;;;;1.67;1.05;;;;;;;19.33;nan;102140.22;10574455;28;20083;-84
2022/03/04 09:43:08;;;;;;;0.35;0.35;;;;;;;20.27;nan;102133.09;10555917;28;20570;-84
2022/03/04 09:48:11;;;;;;;0.32;0.32;;;;;;;20.46;nan;102120.06;10555390;28;20059;-84
2022/03/04 09:53:14;;;;;;;0.90;0.60;;;;;;;21.40;nan;102124.69;10537843;28;20051;-84
2022/03/04 09:58:18;;;;;;;3.88;2.13;;;;;;;20.91;nan;102130.72;10540303;28;20040;-84
2022/03/04 10:03:29;;;;;;;0.90;0.90;;;;;;;20.84;nan;102123.72;10546021;28;20051;-85
2022/03/04 10:08:37;;;;;;;0.93;0.63;;;;;;;22.52;nan;102124.50;10563524;28;20057;-84
2022/03/04 10:13:47;;;;;;;0.43;0.20;;;;;;;22.30;nan;102129.81;10546242;28;20445;-85
2022/03/04 10:19:14;;;;;;;0.20;0.17;;;;;;;21.97;nan;102110.66;10535048;28;20047;-84
2022/03/04 10:24:19;;;;;;;2.13;1.33;;;;;;;22.34;nan;102106.13;10561831;28;20079;-84
2022/03/04 10:29:23;;;;;;;0.00;0.00;;;;;;;21.56;nan;102110.66;10563389;28;20040;-85
2022/03/04 10:34:24;;;;;;;0.82;0.70;;;;;;;22.65;nan;102124.41;10553719;28;20048;-85
2022/03/04 10:39:32;;;;;;;0.00;0.00;;;;;;;23.21;nan;102108.31;10563773;28;20047;-85
2022/03/04 10:44:34;;;;;;;0.52;0.40;;;;;;;22.25;nan;102106.19;10561628;28;20039;-85
2022/03/04 10:49:36;;;;;;;0.47;0.30;;;;;;;20.71;nan;102094.84;10553130;28;20059;-85
2022/03/04 10:54:38;;;;;;;0.03;0.03;;;;;;;23.57;nan;102100.09;10561506;28;20132;-85
2022/03/04 10:59:57;;;;;;;1.30;0.88;;;;;;;24.03;nan;102090.91;10565417;27;20039;-77
2022/03/04 11:05:32;;;;;;;2.75;1.98;;;;;;;24.21;nan;102081.91;10528154;28;20082;-78
2022/03/04 11:10:34;;;;;;;0.00;0.00;;;;;;;24.99;nan;102085.22;10529974;28;20059;-78
2022/03/04 11:15:37;;;;;;;1.13;0.82;;;;;;;22.65;nan;102092.03;10564877;28;20050;-78
2022/03/04 11:20:42;;;;;;;2.72;2.40;;;;;;;24.61;nan;102083.13;10565825;28;20046;-77
2022/03/04 11:25:51;;;;;;;0.00;0.00;;;;;;;25.47;nan;102073.03;10563605;28;20040;-78
2022/03/04 11:31:00;;;;;;;1.55;0.88;;;;;;;24.34;nan;102072.97;10571324;28;20039;-78
2022/03/04 11:36:29;;;;;;;2.85;0.90;;;;;;;25.13;nan;102070.97;10547531;28;20119;-79
2022/03/04 11:41:59;;;;;;;0.10;0.10;;;;;;;24.75;nan;102069.81;10520552;28;20052;-77
2022/03/04 11:47:10;;;;;;;1.17;1.08;;;;;;;24.98;nan;102065.03;10547714;28;20039;-78
2022/03/04 11:52:29;;;;;;;0.50;0.50;;;;;;;24.87;nan;102082.78;10581509;28;20044;-78
2022/03/04 11:57:37;;;;;;;1.60;0.93;;;;;;;24.15;nan;102074.09;10565273;28;20043;-77
2022/03/04 12:02:42;;;;;;;1.80;1.40;;;;;;;22.49;nan;102073.72;10580700;27;20393;-77
2022/03/04 12:07:52;;;;;;;0.85;0.63;;;;;;;25.26;nan;102066.34;10591547;27;20058;-77
2022/03/04 12:13:04;;;;;;;1.13;1.02;;;;;;;24.85;nan;102063.47;10542744;28;20052;-78
2022/03/04 12:18:08;;;;;;;1.40;1.02;;;;;;;22.94;nan;102062.06;10578108;28;20032;-77
2022/03/04 12:23:16;;;;;;;1.45;1.08;;;;;;;23.97;nan;102055.00;10558517;28;20056;-77
2022/03/04 12:28:42;;;;;;;0.40;0.25;;;;;;;23.88;nan;102052.44;10562423;28;20051;-76
2022/03/04 12:33:50;;;;;;;0.80;0.65;;;;;;;23.24;nan;102046.97;10562514;28;20085;-78
2022/03/04 12:38:57;;;;;;;0.15;0.15;;;;;;;23.76;nan;102046.44;10580369;28;20046;-78
2022/03/04 12:44:05;;;;;;;2.50;2.05;;;;;;;25.58;nan;102036.75;10579602;28;20050;-77
2022/03/04 12:49:08;;;;;;;1.23;1.13;;;;;;;24.54;nan;102040.19;10530111;28;20048;-77
2022/03/04 12:54:16;;;;;;;1.83;1.45;;;;;;;22.38;nan;102043.13;10560773;28;20043;-77
2022/03/04 12:59:19;;;;;;;1.58;1.33;;;;;;;23.93;nan;102037.50;10553713;27;20051;-77
2022/03/04 13:04:22;;;;;;;1.02;1.02;;;;;;;24.06;nan;102025.03;10553353;28;20491;-78
2022/03/04 13:09:24;;;;;;;0.63;0.38;;;;;;;24.02;nan;102026.00;10541507;28;20450;-77
2022/03/04 13:14:25;;;;;;;1.30;1.20;;;;;;;24.55;nan;102015.59;10562582;28;20122;-77
2022/03/04 13:19:32;;;;;;;0.88;0.80;;;;;;;23.00;nan;102013.84;10556081;28;20052;-77
2022/03/04 13:24:35;;;;;;;2.42;0.95;;;;;;;22.10;nan;102028.38;10561976;28;20043;-76
2022/03/04 13:29:42;;;;;;;0.35;0.30;;;;;;;22.47;nan;102017.72;10579874;28;20054;-77
2022/03/04 13:34:46;;;;;;;2.58;2.00;;;;;;;22.01;nan;102018.81;10561469;28;20043;-78
2022/03/04 13:40:13;;;;;;;2.03;0.70;;;;;;;24.25;nan;101996.72;10579368;28;20046;-77
2022/03/04 13:45:28;;;;;;;1.35;0.95;;;;;;;24.19;nan;102007.34;10544850;28;20050;-77
2022/03/04 13:50:41;;;;;;;0.00;0.00;;;;;;;23.61;nan;101999.25;10544482;28;20040;-76
2022/03/04 13:55:56;;;;;;;0.52;0.52;;;;;;;23.60;nan;102002.75;10545013;28;20048;-76
2022/03/04 14:01:01;;;;;;;0.00;0.00;;;;;;;22.66;nan;101999.22;10592361;28;20477;-77
2022/03/04 14:06:07;;;;;;;0.00;0.00;;;;;;;24.90;nan;101992.25;10560834;28;20039;-76
2022/03/04 14:11:11;;;;;;;0.00;0.00;;;;;;;22.96;nan;102005.13;10540990;28;20044;-85
2022/03/04 14:16:14;;;;;;;2.42;0.65;;;;;;;22.27;nan;102009.06;10551441;28;20051;-85
2022/03/04 14:21:16;;;;;;;0.88;0.88;;;;;;;23.62;nan;101990.47;10552396;28;20429;-84
2022/03/04 14:26:18;;;;;;;1.85;0.95;;;;;;;22.35;nan;101991.50;10555851;28;20055;-86
2022/03/04 14:31:20;;;;;;;3.80;1.98;;;;;;;20.72;nan;101990.97;10550399;28;20509;-85
2022/03/04 14:36:25;;;;;;;7.88;0.38;;;;;;;22.38;nan;101991.47;10558859;28;20036;-85
2022/03/04 14:41:49;;;;;;;0.45;0.38;;;;;;;22.33;nan;101995.88;10538835;28;20046;-85
2022/03/04 14:46:50;;;;;;;0.35;0.35;;;;;;;22.36;nan;101990.63;10548067;27;20478;-85
2022/03/04 14:51:52;;;;;;;0.32;0.30;;;;;;;21.83;nan;101983.03;10533112;27;20047;-84
2022/03/04 14:56:54;;;;;;;0.98;0.30;;;;;;;21.81;nan;101990.00;10556357;27;20048;-84
2022/03/04 15:01:56;;;;;;;0.65;0.60;;;;;;;21.78;nan;101989.16;10560469;27;20043;-85
2022/03/04 15:06:58;;;;;;;0.88;0.35;;;;;;;22.07;nan;101983.78;10557500;27;20074;-84
2022/03/04 15:12:00;;;;;;;0.15;0.05;;;;;;;21.68;nan;101978.69;10555116;28;20047;-86
2022/03/04 15:17:05;;;;;;;0.63;0.60;;;;;;;19.92;nan;101979.44;10582388;27;20109;-84
2022/03/04 15:22:09;;;;;;;2.25;1.65;;;;;;;20.02;nan;101969.91;10547891;27;22190;-84
2022/03/04 15:27:11;;;;;;;2.97;0.88;;;;;;;20.17;nan;101978.66;10564613;27;20040;-84
2022/03/04 15:32:14;;;;;;;2.35;0.80;;;;;;;19.52;nan;101973.97;10572475;27;20043;-85
2022/03/04 15:37:16;;;;;;;0.00;0.00;;;;;;;20.43;nan;101966.50;10579489;27;20036;-84
2022/03/04 15:42:23;;;;;;;3.65;1.38;;;;;;;19.74;nan;101964.50;10540789;28;20116;-85
2022/03/04 15:47:24;;;;;;;2.65;1.33;;;;;;;19.52;nan;101968.75;10566053;27;20088;-84
2022/03/04 15:52:27;;;;;;;2.63;0.75;;;;;;;20.10;nan;101972.53;10536093;28;20055;-84
2022/03/04 15:57:28;;;;;;;0.00;0.00;;;;;;;20.40;nan;101960.38;10571003;27;20044;-85
2022/03/04 16:02:30;;;;;;;0.63;0.40;;;;;;;19.63;nan;101976.66;10563176;27;20091;-85
2022/03/04 16:07:32;;;;;;;0.30;0.30;;;;;;;20.72;nan;101978.78;10553929;28;20401;-85
2022/03/04 16:12:35;;;;;;;0.73;0.68;;;;;;;19.24;nan;101978.16;10567831;27;20079;-85
2022/03/04 16:17:36;;;;;;;0.13;0.13;;;;;;;19.61;nan;101974.03;10574460;27;20078;-85
2022/03/04 16:22:39;;;;;;;0.00;0.00;;;;;;;20.45;nan;101969.13;10542671;27;20066;-85
2022/03/04 16:27:41;;;;;;;0.00;0.00;;;;;;;20.45;nan;101969.13;10548641;27;20070;-84
2022/03/04 16:32:42;;;;;;;0.00;0.00;;;;;;;20.24;nan;101976.06;10565485;27;20062;-83
2022/03/04 16:37:44;;;;;;;0.00;0.00;;;;;;;19.81;nan;101970.63;10565177;27;20035;-84
2022/03/04 16:42:46;;;;;;;0.00;0.00;;;;;;;20.34;nan;101976.94;10556318;27;20046;-85
2022/03/04 16:47:48;;;;;;;0.00;0.00;;;;;;;20.92;nan;101965.69;10575476;27;20039;-84
2022/03/04 16:52:50;;;;;;;0.10;0.10;;;;;;;21.14;nan;101962.19;10534668;27;20052;-84
2022/03/04 16:57:53;;;;;;;0.95;0.45;;;;;;;18.64;nan;101976.78;10563106;27;20049;-84
2022/03/04 17:02:54;;;;;;;0.13;0.05;;;;;;;19.59;nan;101973.16;10577965;27;20032;-84
2022/03/04 17:07:56;;;;;;;0.00;0.00;;;;;;;19.82;nan;101972.41;10537802;28;20618;-84
2022/03/04 17:12:59;;;;;;;0.00;0.00;;;;;;;18.85;nan;101980.44;10535319;28;20147;-83
2022/03/04 17:18:02;;;;;;;0.00;0.00;;;;;;;20.31;nan;101981.28;10532286;28;20031;-83
2022/03/04 17:23:04;;;;;;;0.00;0.00;;;;;;;19.19;nan;101985.94;10570151;27;20035;-83
2022/03/04 17:28:08;;;;;;;0.95;0.75;;;;;;;18.64;nan;101997.66;10552794;27;20046;-83
2022/03/04 17:33:12;;;;;;;0.10;0.10;;;;;;;18.56;nan;102004.53;10571090;28;20039;-83
2022/03/04 17:38:14;;;;;;;0.00;0.00;;;;;;;19.93;nan;101998.63;10556537;28;20302;-83
2022/03/04 17:43:16;;;;;;;0.00;0.00;;;;;;;18.62;nan;102009.81;10546084;28;20027;-83
2022/03/04 17:48:17;;;;;;;0.10;0.10;;;;;;;18.65;nan;102015.03;10560233;28;20140;-83
2022/03/04 17:53:19;;;;;;;0.00;0.00;;;;;;;17.73;nan;102007.88;10533037;28;20090;-83
2022/03/04 17:58:21;;;;;;;0.43;0.43;;;;;;;17.58;nan;102010.25;10553055;28;20336;-83
2022/03/04 18:03:22;;;;;;;0.00;0.00;;;;;;;17.57;nan;102013.69;10528782;28;20051;-83
2022/03/04 18:08:26;;;;;;;0.00;0.00;;;;;;;17.62;nan;102003.34;10572640;28;20070;-83
2022/03/04 18:13:28;;;;;;;0.00;0.00;;;;;;;17.23;nan;102008.00;10530980;28;20369;-83
2022/03/04 18:18:30;;;;;;;0.00;0.00;;;;;;;17.02;nan;102014.56;10552154;28;20545;-83
2022/03/04 18:23:32;;;;;;;0.30;0.30;;;;;;;16.86;nan;102008.19;10574766;27;20443;-83
2022/03/04 18:28:45;;;;;;;0.00;0.00;;;;;;;16.27;nan;102012.31;10584954;27;20467;-84
2022/03/04 18:33:47;;;;;;;0.00;0.00;;;;;;;16.80;nan;102023.72;10552468;27;20054;-83
2022/03/04 18:44:09;;;;;;;0.63;0.63;;;;;;;16.14;nan;102025.91;10586365;27;20053;-83
2022/03/04 18:49:11;;;;;;;0.00;0.00;;;;;;;16.10;nan;102024.97;10562073;28;20047;-84
2022/03/04 18:54:12;;;;;;;0.10;0.10;;;;;;;16.49;nan;102033.53;10564190;28;20410;-84
2022/03/04 18:59:16;;;;;;;0.00;0.00;;;;;;;16.87;nan;102033.38;10562164;28;20039;-84
2022/03/04 19:04:20;;;;;;;0.00;0.00;;;;;;;16.29;nan;102040.94;10541755;27;20059;-83
2022/03/04 19:09:22;;;;;;;0.00;0.00;;;;;;;16.94;nan;102035.28;10574527;27;20071;-84
2022/03/04 19:14:24;;;;;;;0.03;0.00;;;;;;;15.77;nan;102041.56;10553794;28;20140;-84
2022/03/04 19:19:29;;;;;;;0.00;0.00;;;;;;;15.94;nan;102041.94;10576478;28;20097;-83
2022/03/04 19:24:40;;;;;;;0.20;0.20;;;;;;;16.16;nan;102039.81;10581039;27;20036;-84
2022/03/04 19:29:42;;;;;;;1.45;0.70;;;;;;;14.98;nan;102046.56;10557756;28;20494;-84
2022/03/04 19:34:44;;;;;;;1.77;1.08;;;;;;;14.42;nan;102045.03;10554523;28;20113;-83
2022/03/04 19:39:49;;;;;;;1.90;1.50;;;;;;;14.83;nan;102052.22;10545943;27;20039;-84
2022/03/04 19:44:51;;;;;;;0.00;0.00;;;;;;;16.53;nan;102050.09;10578272;27;20040;-84
2022/03/04 19:49:53;;;;;;;0.00;0.00;;;;;;;17.42;nan;102051.69;10582678;27;20048;-84
2022/03/04 19:54:57;;;;;;;0.00;0.00;;;;;;;16.47;nan;102054.34;10553969;28;20051;-84
2022/03/04 19:59:59;;;;;;;0.65;0.65;;;;;;;15.86;nan;102062.59;10552463;27;20051;-83
2022/03/04 20:05:01;;;;;;;1.92;0.35;;;;;;;14.95;nan;102073.31;10572661;27;20043;-83
2022/03/04 20:10:03;;;;;;;0.00;0.00;;;;;;;15.11;nan;102074.59;10568172;27;20607;-84
2022/03/04 20:15:05;;;;;;;0.00;0.00;;;;;;;15.26;nan;102073.22;10553547;27;20109;-83
2022/03/04 20:20:07;;;;;;;1.15;0.68;;;;;;;15.03;nan;102077.00;10520649;28;20051;-84
2022/03/04 20:25:10;;;;;;;0.75;0.75;;;;;;;15.16;nan;102077.31;10556035;28;20051;-83
2022/03/04 20:30:12;;;;;;;1.20;0.30;;;;;;;14.66;nan;102081.19;10563859;27;20047;-83
2022/03/04 20:35:14;;;;;;;0.20;0.20;;;;;;;15.66;nan;102071.63;10527091;28;20410;-83
2022/03/04 20:40:16;;;;;;;0.00;0.00;;;;;;;15.09;nan;102086.63;10554917;28;20052;-83
2022/03/04 20:45:17;;;;;;;0.00;0.00;;;;;;;15.30;nan;102080.28;10566484;28;20051;-84
2022/03/04 20:50:19;;;;;;;0.00;0.00;;;;;;;15.82;nan;102076.28;10567736;28;20051;-84
2022/03/04 20:55:21;;;;;;;0.00;0.00;;;;;;;15.08;nan;102084.88;10558656;28;20071;-83
2022/03/04 21:00:39;;;;;;;0.00;0.00;;;;;;;15.32;nan;102083.75;10553154;28;20086;-84
2022/03/04 21:05:41;;;;;;;0.95;0.95;;;;;;;15.54;nan;102082.59;10545411;27;20520;-84
2022/03/04 21:10:43;;;;;;;0.00;0.00;;;;;;;14.39;nan;102086.44;10571367;27;20391;-84
2022/03/04 21:15:44;;;;;;;0.10;0.10;;;;;;;14.07;nan;102084.63;10545408;27;20403;-83
2022/03/04 21:20:46;;;;;;;0.00;0.00;;;;;;;14.46;nan;102082.28;10558910;27;20040;-84
2022/03/04 21:25:48;;;;;;;0.00;0.00;;;;;;;14.95;nan;102088.00;10554349;27;20092;-84
2022/03/04 21:30:49;;;;;;;0.10;0.10;;;;;;;15.42;nan;102084.88;10546135;28;20043;-84
2022/03/04 21:35:51;;;;;;;0.00;0.00;;;;;;;15.83;nan;102074.63;10555784;27;20043;-84
2022/03/04 21:40:53;;;;;;;0.10;0.10;;;;;;;14.60;nan;102091.34;10573194;27;20046;-84
2022/03/04 21:45:55;;;;;;;0.00;0.00;;;;;;;15.41;nan;102084.00;10565906;28;20039;-84
2022/03/04 21:50:57;;;;;;;0.00;0.00;;;;;;;14.51;nan;102086.78;10543447;28;20508;-84
2022/03/04 21:55:58;;;;;;;0.00;0.00;;;;;;;13.59;nan;102090.91;10552453;28;20062;-84
2022/03/04 22:01:00;;;;;;;0.00;0.00;;;;;;;14.27;nan;102085.22;10560921;27;20049;-84
2022/03/04 22:06:02;;;;;;;0.00;0.00;;;;;;;14.56;nan;102090.38;10575385;27;20075;-84
2022/03/04 22:11:04;;;;;;;0.15;0.15;;;;;;;13.09;nan;102095.25;10567564;27;20120;-83
2022/03/04 22:16:06;;;;;;;0.00;0.00;;;;;;;13.20;nan;102088.75;10547836;27;20054;-84
2022/03/04 22:21:07;;;;;;;0.00;0.00;;;;;;;14.09;nan;102079.50;10562625;27;20062;-83
2022/03/04 22:26:10;;;;;;;0.00;0.00;;;;;;;13.52;nan;102078.59;10561071;27;20194;-84
2022/03/04 22:31:12;;;;;;;0.38;0.38;;;;;;;13.21;nan;102077.56;10570260;27;20391;-84
2022/03/04 22:36:14;;;;;;;0.10;0.10;;;;;;;13.75;nan;102075.84;10580880;27;20075;-84
2022/03/04 22:41:16;;;;;;;0.10;0.10;;;;;;;12.68;nan;102087.78;10588559;27;20046;-84
2022/03/04 22:46:17;;;;;;;0.10;0.10;;;;;;;12.66;nan;102085.13;10556978;27;20048;-83
2022/03/04 22:51:19;;;;;;;0.00;0.00;;;;;;;13.86;nan;102073.59;10576861;28;20063;-83
2022/03/04 22:56:21;;;;;;;0.00;0.00;;;;;;;13.28;nan;102084.72;10550492;27;20051;-84
2022/03/04 23:01:25;;;;;;;0.22;0.22;;;;;;;13.05;nan;102081.31;10560409;28;20086;-83
2022/03/04 23:11:50;;;;;;;0.00;0.00;;;;;;;13.84;nan;102063.22;10554848;28;20154;-83
2022/03/04 23:16:52;;;;;;;0.00;0.00;;;;;;;13.60;nan;102056.41;10553116;28;20043;-83
2022/03/04 23:21:54;;;;;;;0.00;0.00;;;;;;;12.91;nan;102061.84;10558210;28;20426;-83
2022/03/04 23:26:56;;;;;;;0.10;0.10;;;;;;;12.28;nan;102069.09;10562485;27;20043;-83
2022/03/04 23:31:57;;;;;;;0.10;0.10;;;;;;;13.14;nan;102057.47;10558710;27;20134;-84
2022/03/04 23:36:59;;;;;;;0.25;0.20;;;;;;;12.42;nan;102056.69;10552137;28;20050;-83
2022/03/04 23:42:01;;;;;;;0.00;0.00;;;;;;;12.39;nan;102061.75;10556845;28;20046;-84
2022/03/04 23:47:03;;;;;;;0.00;0.00;;;;;;;12.86;nan;102048.75;10549736;27;20048;-83
2022/03/04 23:52:06;;;;;;;0.00;0.00;;;;;;;13.15;nan;102051.44;10556738;27;20490;-83
2022/03/04 23:57:07;;;;;;;0.40;0.32;;;;;;;12.26;nan;102044.91;10555257;28;20059;-83
